Time;durP1;ratioP1;P1;durP2;ratioP2;P2;SDS_P1;SDS_P2;PMS_P1;PMS_P2;Temp;Humidity;BMP_temperature;BMP_pressure;BME280_temperature;BME280_humidity;BME280_pressure;Samples;Min_cycle;Max_cycle;Signal;HPM_P1;HPM_P2
2021/09/09 00:00:01;;;;;;;19.73;6.53;;;12.70;99.90;12.70;100636.00;;;;4953203;28;109104;-65
2021/09/09 00:02:26;;;;;;;7.53;5.87;;;12.70;99.90;12.60;100635.00;;;;4953497;28;90629;-66
2021/09/09 00:04:52;;;;;;;6.30;5.63;;;12.60;99.90;12.60;100639.00;;;;4953035;28;107953;-65
2021/09/09 00:07:19;;;;;;;7.97;6.23;;;12.60;99.90;12.50;100630.00;;;;4952340;28;119114;-66
2021/09/09 00:09:44;;;;;;;10.30;5.47;;;12.50;99.90;12.50;100639.00;;;;4954238;28;87898;-65
2021/09/09 00:12:10;;;;;;;11.53;7.27;;;12.40;99.90;12.40;100642.00;;;;4952998;28;110834;-65
2021/09/09 00:14:36;;;;;;;8.90;6.47;;;12.40;99.90;12.40;100637.00;;;;4953653;28;87932;-65
2021/09/09 00:17:02;;;;;;;12.33;6.93;;;12.40;99.90;12.30;100631.00;;;;4951795;28;118940;-65
2021/09/09 00:19:28;;;;;;;6.90;5.10;;;12.30;99.90;12.30;100626.00;;;;4953414;28;88571;-65
2021/09/09 00:21:53;;;;;;;9.53;5.87;;;12.30;99.90;12.30;100626.00;;;;4952911;28;111314;-65
2021/09/09 00:24:19;;;;;;;8.00;5.63;;;12.30;99.90;12.30;100620.00;;;;4958502;28;109078;-64
2021/09/09 00:26:45;;;;;;;9.47;6.23;;;12.30;99.90;12.20;100630.00;;;;4954094;28;116903;-66
2021/09/09 00:29:10;;;;;;;9.80;6.27;;;12.20;99.90;12.20;100624.00;;;;4952602;28;113879;-66
2021/09/09 00:31:36;;;;;;;11.50;6.03;;;12.20;99.90;12.10;100623.00;;;;4953064;28;111367;-66
2021/09/09 00:34:02;;;;;;;7.03;5.77;;;12.10;99.90;12.10;100617.00;;;;4954113;28;87131;-67
2021/09/09 00:36:28;;;;;;;9.97;5.83;;;12.10;99.90;12.10;100623.00;;;;4952589;28;118550;-66
2021/09/09 00:38:54;;;;;;;10.30;6.03;;;12.10;99.90;12.00;100615.00;;;;4944902;28;116299;-66
2021/09/09 00:41:22;;;;;;;10.83;6.03;;;12.00;99.90;12.00;100613.00;;;;4953926;28;107515;-65
2021/09/09 00:43:47;;;;;;;8.47;5.67;;;12.00;99.90;11.90;100606.00;;;;4953429;28;88012;-65
2021/09/09 00:46:13;;;;;;;8.47;6.37;;;11.90;99.90;11.80;100606.00;;;;4952399;28;117859;-65
2021/09/09 00:48:39;;;;;;;10.63;5.83;;;11.90;99.90;11.80;100603.00;;;;4951552;28;117317;-65
2021/09/09 00:51:04;;;;;;;6.73;6.00;;;11.80;99.90;11.80;100610.00;;;;4953831;28;87670;-66
2021/09/09 00:53:30;;;;;;;10.13;5.93;;;11.80;99.90;11.80;100608.00;;;;4951999;28;109281;-65
2021/09/09 00:55:56;;;;;;;9.60;5.80;;;11.80;99.90;11.70;100608.00;;;;4952259;28;117798;-65
2021/09/09 00:58:24;;;;;;;8.50;5.77;;;11.80;99.90;11.70;100612.00;;;;4952010;28;117469;-65
2021/09/09 01:00:49;;;;;;;9.87;6.73;;;11.70;99.90;11.70;100604.00;;;;4952956;28;109282;-65
2021/09/09 01:03:15;;;;;;;8.50;5.97;;;11.70;99.90;11.70;100604.00;;;;4952445;28;107853;-65
2021/09/09 01:05:41;;;;;;;9.00;6.47;;;11.70;99.90;11.70;100600.00;;;;4948952;28;117637;-66
2021/09/09 01:08:07;;;;;;;10.50;5.90;;;11.70;99.90;11.60;100614.00;;;;4953187;28;88654;-65
2021/09/09 01:10:36;;;;;;;7.70;5.90;;;11.60;99.90;11.60;100606.00;;;;4964468;28;87719;-66
2021/09/09 01:13:07;;;;;;;7.13;5.93;;;11.60;99.90;11.60;100603.00;;;;4953086;28;87747;-66
2021/09/09 01:15:41;;;;;;;6.93;5.53;;;11.60;99.90;11.60;100607.00;;;;4960364;28;88203;-66
2021/09/09 01:18:12;;;;;;;10.30;6.17;;;11.60;99.90;11.60;100611.00;;;;4952490;28;88083;-67
2021/09/09 01:20:39;;;;;;;9.87;6.50;;;11.60;99.90;11.50;100615.00;;;;4952646;28;92629;-67
2021/09/09 01:23:06;;;;;;;7.50;5.27;;;11.50;99.90;11.50;100613.00;;;;4951047;28;87337;-66
2021/09/09 01:25:32;;;;;;;9.03;6.53;;;11.50;99.90;11.50;100612.00;;;;4952832;28;102785;-66
2021/09/09 01:27:58;;;;;;;9.83;6.47;;;11.50;99.90;11.40;100621.00;;;;4951833;28;93575;-66
2021/09/09 01:30:23;;;;;;;8.00;5.13;;;11.40;99.90;11.40;100610.00;;;;4951877;28;103833;-65
2021/09/09 01:32:49;;;;;;;9.37;6.30;;;11.40;99.90;11.30;100608.00;;;;4953112;28;87708;-65
2021/09/09 01:35:15;;;;;;;9.00;6.03;;;11.40;99.90;11.30;100609.00;;;;4951608;28;101815;-65
2021/09/09 01:37:41;;;;;;;8.80;6.27;;;11.30;99.90;11.30;100617.00;;;;4955799;28;88817;-65
2021/09/09 01:40:08;;;;;;;7.90;5.87;;;11.30;99.90;11.30;100602.00;;;;4952840;28;87866;-65
2021/09/09 01:42:33;;;;;;;7.93;5.23;;;11.30;99.90;11.20;100601.00;;;;4951912;28;95386;-65
2021/09/09 01:44:59;;;;;;;8.57;6.43;;;11.00;99.90;11.20;100610.00;;;;4964180;28;88102;-65
2021/09/09 01:47:25;;;;;;;7.77;5.67;;;11.20;99.90;11.10;100611.00;;;;4953929;28;117569;-66
2021/09/09 01:49:51;;;;;;;8.87;6.23;;;11.10;99.90;11.10;100602.00;;;;4952037;28;109763;-65
2021/09/09 01:52:17;;;;;;;9.33;5.53;;;11.10;99.90;11.00;100599.00;;;;4954968;28;87895;-65
2021/09/09 01:54:43;;;;;;;9.80;6.67;;;11.10;99.90;11.00;100602.00;;;;4949938;28;117933;-65
2021/09/09 01:57:08;;;;;;;7.90;5.43;;;11.70;99.90;10.90;100605.00;;;;4951028;28;117891;-65
2021/09/09 01:59:34;;;;;;;8.23;6.20;;;10.90;99.90;10.90;100604.00;;;;4952812;28;87825;-65
2021/09/09 02:02:00;;;;;;;10.23;5.90;;;10.90;99.90;10.90;100608.00;;;;4952390;28;87924;-64
2021/09/09 02:04:28;;;;;;;6.57;5.67;;;10.90;99.90;10.80;100599.00;;;;4952996;28;116734;-65
2021/09/09 02:06:55;;;;;;;10.80;6.03;;;10.80;99.90;10.80;100596.00;;;;4952101;28;88025;-66
2021/09/09 02:09:21;;;;;;;9.23;5.87;;;10.80;99.90;10.80;100598.00;;;;4952592;28;87743;-67
2021/09/09 02:11:46;;;;;;;7.63;6.33;;;10.80;99.90;10.70;100595.00;;;;4952100;28;108862;-66
2021/09/09 02:14:12;;;;;;;9.67;6.10;;;10.80;99.90;10.70;100579.00;;;;4950827;28;117765;-66
2021/09/09 02:16:38;;;;;;;8.00;5.73;;;10.70;99.90;10.70;100586.00;;;;4950501;28;117368;-65
2021/09/09 02:19:03;;;;;;;10.73;5.80;;;10.70;99.90;10.70;100588.00;;;;4954069;28;111021;-65
2021/09/09 02:21:29;;;;;;;8.33;5.50;;;10.70;99.90;10.60;100578.00;;;;4962843;28;108477;-66
2021/09/09 02:23:55;;;;;;;8.13;5.40;;;10.60;99.90;10.60;100581.00;;;;4957188;28;114503;-65
2021/09/09 02:26:21;;;;;;;12.60;6.70;;;10.60;99.90;10.60;100572.00;;;;4958549;28;88314;-65
2021/09/09 02:28:47;;;;;;;9.70;5.83;;;10.70;99.90;10.60;100576.00;;;;4955650;28;88698;-65
2021/09/09 02:31:12;;;;;;;10.30;5.97;;;10.60;99.90;10.60;100570.00;;;;4955936;28;88008;-65
2021/09/09 02:33:38;;;;;;;7.73;6.07;;;10.60;99.90;10.60;100575.00;;;;4964427;28;94919;-65
2021/09/09 02:36:05;;;;;;;10.13;6.53;;;10.60;99.90;10.60;100575.00;;;;4955102;28;117329;-65
2021/09/09 02:38:30;;;;;;;7.53;5.77;;;10.60;99.90;10.60;100570.00;;;;4955381;28;87940;-65
2021/09/09 02:40:56;;;;;;;8.20;5.93;;;10.50;99.90;10.50;100572.00;;;;4954984;28;93989;-65
2021/09/09 02:43:22;;;;;;;7.47;5.97;;;10.50;99.90;10.50;100572.00;;;;4953521;28;108085;-65
2021/09/09 02:45:47;;;;;;;13.70;6.83;;;10.50;99.90;10.50;100562.00;;;;4955322;28;90077;-65
2021/09/09 02:48:13;;;;;;;9.97;6.10;;;10.50;99.90;10.50;100565.00;;;;4953810;28;109866;-65
2021/09/09 02:50:39;;;;;;;9.50;6.20;;;10.50;99.90;10.50;100568.00;;;;4954484;28;109547;-66
2021/09/09 02:53:05;;;;;;;6.80;5.47;;;10.50;99.90;10.50;100568.00;;;;4954693;28;88739;-65
2021/09/09 02:55:31;;;;;;;7.47;6.33;;;10.50;99.90;10.50;100564.00;;;;4968306;28;117665;-65
2021/09/09 02:57:57;;;;;;;10.00;5.90;;;10.50;99.90;10.50;100563.00;;;;4953981;28;98691;-66
2021/09/09 03:00:22;;;;;;;8.70;6.17;;;10.50;99.90;10.50;100561.00;;;;4960710;28;109015;-67
2021/09/09 03:02:48;;;;;;;13.50;6.27;;;10.50;99.90;10.50;100553.00;;;;4945735;28;101569;-67
2021/09/09 03:05:14;;;;;;;7.20;4.83;;;10.50;99.90;10.50;100560.00;;;;4953814;28;110028;-66
2021/09/09 03:07:40;;;;;;;8.87;5.83;;;10.50;99.90;10.50;100559.00;;;;4955793;28;88905;-66
2021/09/09 03:10:07;;;;;;;8.37;6.00;;;10.50;99.90;10.50;100552.00;;;;4956389;28;87823;-66
2021/09/09 03:12:33;;;;;;;7.00;5.93;;;10.50;99.90;10.50;100544.00;;;;4954615;28;88102;-66
2021/09/09 03:14:59;;;;;;;8.47;5.40;;;10.50;99.90;10.50;100541.00;;;;4954526;28;88000;-67
2021/09/09 03:17:25;;;;;;;9.77;5.67;;;10.50;99.90;10.50;100543.00;;;;4954293;28;87690;-66
2021/09/09 03:19:51;;;;;;;10.50;5.53;;;10.50;99.90;10.50;100544.00;;;;4955245;28;87963;-66
2021/09/09 03:22:16;;;;;;;7.93;5.70;;;10.40;99.90;10.50;100538.00;;;;4953944;28;99957;-66
2021/09/09 03:24:42;;;;;;;6.27;5.63;;;10.50;99.90;10.50;100537.00;;;;4959570;28;117902;-65
2021/09/09 03:27:08;;;;;;;7.57;5.07;;;10.50;99.90;10.50;100533.00;;;;4956225;28;110084;-65
2021/09/09 03:29:33;;;;;;;8.47;5.40;;;10.50;99.90;10.50;100537.00;;;;4953264;28;109112;-65
2021/09/09 03:31:59;;;;;;;9.10;5.73;;;10.50;99.90;10.40;100535.00;;;;4960302;28;119867;-65
2021/09/09 03:34:25;;;;;;;10.90;5.73;;;10.50;99.90;10.50;100538.00;;;;4952983;28;118503;-65
2021/09/09 03:36:50;;;;;;;9.60;5.37;;;10.50;99.90;10.50;100530.00;;;;4953662;28;110860;-65
2021/09/09 03:39:16;;;;;;;8.17;6.63;;;10.50;99.90;10.50;100538.00;;;;4958589;28;108157;-65
2021/09/09 03:41:42;;;;;;;6.30;5.33;;;10.50;99.90;10.50;100536.00;;;;4956470;28;113430;-65
2021/09/09 03:44:08;;;;;;;12.03;6.10;;;10.50;99.90;10.50;100534.00;;;;4957819;28;88937;-66
2021/09/09 03:46:34;;;;;;;9.70;6.10;;;10.50;99.90;10.50;100532.00;;;;4958477;28;111264;-67
2021/09/09 03:48:59;;;;;;;11.47;6.87;;;10.50;99.90;10.50;100529.00;;;;4964322;28;87437;-66
2021/09/09 03:51:25;;;;;;;7.57;5.47;;;10.50;99.90;10.50;100529.00;;;;4955896;28;102951;-66
2021/09/09 03:53:51;;;;;;;8.10;5.60;;;10.40;99.90;10.40;100520.00;;;;4957148;28;102416;-66
2021/09/09 03:56:16;;;;;;;9.67;5.63;;;10.50;99.90;10.40;100518.00;;;;4959916;28;109903;-66
2021/09/09 03:58:42;;;;;;;9.43;6.60;;;10.50;99.90;10.40;100526.00;;;;4955735;28;109074;-66
2021/09/09 04:01:08;;;;;;;9.50;6.00;;;10.40;99.90;10.40;100521.00;;;;4957928;28;89039;-66
2021/09/09 04:03:33;;;;;;;10.30;6.37;;;10.40;99.90;10.40;100527.00;;;;4953177;28;116243;-66
2021/09/09 04:05:59;;;;;;;10.27;5.77;;;10.40;99.90;10.30;100518.00;;;;4953225;28;111775;-66
2021/09/09 04:08:25;;;;;;;8.73;5.80;;;10.40;99.90;10.30;100526.00;;;;4949571;28;108380;-66
2021/09/09 04:10:50;;;;;;;12.73;6.57;;;10.30;99.90;10.20;100524.00;;;;4954896;28;87847;-66
2021/09/09 04:13:16;;;;;;;8.67;5.80;;;10.30;99.90;10.20;100521.00;;;;4954321;28;98662;-66
2021/09/09 04:15:42;;;;;;;7.10;5.63;;;10.30;99.90;10.20;100519.00;;;;4953184;28;110006;-66
2021/09/09 04:18:07;;;;;;;8.07;5.80;;;10.20;99.90;10.20;100510.00;;;;4952645;28;109815;-66
2021/09/09 04:20:33;;;;;;;7.67;5.53;;;10.00;99.90;10.20;100515.00;;;;4953612;28;89475;-66
2021/09/09 04:22:59;;;;;;;9.53;7.40;;;10.20;99.90;10.10;100505.00;;;;4952380;28;118329;-66
2021/09/09 04:25:24;;;;;;;8.03;5.63;;;10.20;99.90;10.10;100498.00;;;;4953558;28;111361;-66
2021/09/09 04:27:50;;;;;;;12.93;6.67;;;10.20;99.90;10.10;100507.00;;;;4956839;28;87651;-66
2021/09/09 04:30:16;;;;;;;7.47;6.67;;;10.20;99.90;10.10;100505.00;;;;4949672;28;88202;-66
2021/09/09 04:32:41;;;;;;;6.13;4.90;;;10.20;99.90;10.10;100502.00;;;;4953042;28;117293;-66
2021/09/09 04:35:08;;;;;;;8.13;6.23;;;10.10;99.90;10.10;100495.00;;;;4952437;28;111664;-66
2021/09/09 04:37:37;;;;;;;11.47;6.00;;;10.10;99.90;10.10;100499.00;;;;4953928;28;92250;-66
2021/09/09 04:40:05;;;;;;;6.03;5.40;;;10.10;99.90;10.10;100497.00;;;;4952521;28;100466;-66
2021/09/09 04:42:30;;;;;;;7.07;5.20;;;10.10;99.90;10.10;100501.00;;;;4952660;28;88980;-66
2021/09/09 04:44:56;;;;;;;9.13;6.50;;;10.10;99.90;10.10;100498.00;;;;4952335;28;110145;-66
2021/09/09 04:47:22;;;;;;;8.83;6.13;;;10.10;99.90;10.10;100497.00;;;;4952707;28;105801;-66
2021/09/09 04:49:48;;;;;;;10.40;6.80;;;10.10;99.90;10.10;100486.00;;;;4953539;28;92642;-66
2021/09/09 04:52:13;;;;;;;9.23;6.20;;;10.10;99.90;10.10;100495.00;;;;4952387;28;118537;-66
2021/09/09 04:54:39;;;;;;;11.57;6.43;;;10.10;99.90;10.10;100490.00;;;;4953725;28;87734;-66
2021/09/09 04:57:05;;;;;;;8.70;5.33;;;10.10;99.90;10.10;100499.00;;;;4951652;28;108311;-66
2021/09/09 04:59:31;;;;;;;9.77;6.30;;;10.10;99.90;10.20;100487.00;;;;4952474;28;95243;-66
2021/09/09 05:01:57;;;;;;;6.23;5.47;;;10.20;99.90;10.20;100491.00;;;;4953707;28;87511;-67
2021/09/09 05:04:22;;;;;;;11.53;6.07;;;10.20;99.90;10.30;100487.00;;;;4953304;28;109284;-66
2021/09/09 05:06:48;;;;;;;9.17;5.77;;;10.30;99.90;10.30;100485.00;;;;4952910;28;87809;-66
2021/09/09 05:09:14;;;;;;;9.33;6.30;;;10.30;99.90;10.40;100474.00;;;;4951230;28;119047;-66
2021/09/09 05:11:39;;;;;;;9.20;6.40;;;10.40;99.90;10.50;100480.00;;;;4952822;28;118408;-66
2021/09/09 05:14:05;;;;;;;7.50;5.70;;;10.50;99.90;10.60;100484.00;;;;4952031;28;107606;-66
2021/09/09 05:16:31;;;;;;;7.23;5.60;;;10.50;99.90;10.70;100468.00;;;;4953133;28;87730;-67
2021/09/09 05:18:56;;;;;;;7.90;6.30;;;10.60;99.90;10.80;100471.00;;;;4959758;28;117156;-66
2021/09/09 05:21:22;;;;;;;10.47;6.40;;;10.70;99.90;10.90;100462.00;;;;4951812;28;117753;-67
2021/09/09 05:23:48;;;;;;;7.27;5.50;;;10.90;99.90;11.10;100471.00;;;;4953309;28;110650;-66
2021/09/09 05:26:14;;;;;;;7.70;5.60;;;11.00;99.90;11.20;100475.00;;;;4954401;28;90866;-67
2021/09/09 05:28:40;;;;;;;8.83;5.37;;;11.20;99.90;11.40;100465.00;;;;4951407;28;118045;-66
2021/09/09 05:31:05;;;;;;;7.10;5.53;;;11.30;99.90;11.60;100472.00;;;;4952029;28;118025;-66
2021/09/09 05:33:31;;;;;;;9.63;5.27;;;11.50;99.90;11.80;100463.00;;;;4951738;28;110612;-66
2021/09/09 05:35:57;;;;;;;7.10;5.47;;;11.70;99.90;12.00;100464.00;;;;4952798;28;87690;-66
2021/09/09 05:38:23;;;;;;;5.53;4.33;;;11.80;99.90;12.20;100468.00;;;;4958558;28;116674;-65
2021/09/09 05:40:50;;;;;;;6.57;4.27;;;12.00;99.90;12.40;100455.00;;;;4953210;28;88250;-66
2021/09/09 05:43:17;;;;;;;6.80;5.53;;;12.20;99.90;12.60;100465.00;;;;4952448;28;88257;-66
2021/09/09 05:45:43;;;;;;;7.37;5.10;;;12.50;99.90;12.90;100464.00;;;;4952919;28;87980;-67
2021/09/09 05:48:09;;;;;;;6.43;4.50;;;12.70;99.90;13.10;100474.00;;;;4952732;28;92495;-66
2021/09/09 05:50:35;;;;;;;7.90;4.90;;;12.90;99.90;13.30;100477.00;;;;4953743;28;116046;-66
2021/09/09 05:53:00;;;;;;;6.77;4.57;;;13.20;99.90;13.60;100473.00;;;;4962784;28;92022;-66
2021/09/09 05:55:26;;;;;;;5.63;4.03;;;13.40;99.90;13.80;100469.00;;;;4955376;28;109108;-66
2021/09/09 05:57:52;;;;;;;8.07;4.87;;;13.60;99.90;14.10;100476.00;;;;4954323;28;119787;-66
2021/09/09 06:00:17;;;;;;;6.80;4.70;;;13.80;99.90;14.30;100470.00;;;;4955015;28;118242;-66
2021/09/09 06:02:46;;;;;;;11.30;4.33;;;14.10;99.90;14.60;100465.00;;;;4955814;28;110868;-67
2021/09/09 06:05:14;;;;;;;4.17;3.53;;;14.40;99.90;14.90;100468.00;;;;4959323;28;87636;-66
2021/09/09 06:07:40;;;;;;;9.80;4.23;;;14.70;99.90;15.20;100470.00;;;;4956063;28;88198;-66
2021/09/09 06:10:08;;;;;;;4.87;4.03;;;14.90;99.90;15.50;100467.00;;;;4955512;28;101654;-66
2021/09/09 06:12:34;;;;;;;5.77;3.77;;;15.20;99.90;15.80;100473.00;;;;4955072;28;92727;-66
2021/09/09 06:14:59;;;;;;;5.10;3.77;;;15.50;99.90;16.00;100468.00;;;;4955843;28;103534;-66
2021/09/09 06:17:25;;;;;;;5.07;3.50;;;15.80;99.90;16.30;100485.00;;;;4955331;28;89253;-65
2021/09/09 06:19:51;;;;;;;3.88;3.28;;;16.10;99.90;16.60;100470.00;;;;4957767;28;88787;-65
2021/09/09 06:22:17;;;;;;;7.80;3.40;;;16.30;99.90;16.90;100468.00;;;;4962060;28;110485;-65
2021/09/09 06:24:42;;;;;;;4.85;3.20;;;16.60;99.90;17.20;100467.00;;;;4965538;28;104093;-64
2021/09/09 06:27:08;;;;;;;5.43;3.88;;;16.90;99.90;17.50;100466.00;;;;4954400;28;109309;-70
2021/09/09 06:29:34;;;;;;;5.53;3.25;;;17.20;99.90;17.70;100472.00;;;;4953442;28;117869;-68
2021/09/09 06:31:59;;;;;;;5.07;3.22;;;17.50;99.90;18.00;100471.00;;;;4955063;28;109682;-68
2021/09/09 06:34:25;;;;;;;3.85;2.97;;;17.70;99.90;18.30;100469.00;;;;4956741;28;107952;-68
2021/09/09 06:36:51;;;;;;;3.35;2.60;;;18.00;99.90;18.50;100472.00;;;;4955474;28;88036;-68
2021/09/09 06:39:19;;;;;;;4.65;3.53;;;18.20;99.90;18.70;100473.00;;;;4957885;28;117686;-67
2021/09/09 06:41:45;;;;;;;4.40;3.05;;;18.70;99.90;18.90;100474.00;;;;4955329;28;88014;-68
2021/09/09 06:44:14;;;;;;;5.03;3.08;;;18.60;99.90;19.20;100479.00;;;;4955542;28;87973;-69
2021/09/09 06:46:42;;;;;;;5.13;2.78;;;18.90;99.90;19.40;100466.00;;;;4954082;28;102593;-69
2021/09/09 06:49:08;;;;;;;3.28;2.55;;;19.10;99.90;19.70;100473.00;;;;4964578;28;88868;-69
2021/09/09 06:51:34;;;;;;;3.47;2.50;;;19.40;99.90;19.90;100470.00;;;;4965666;28;87688;-68
2021/09/09 06:54:00;;;;;;;2.20;1.95;;;19.60;99.30;20.10;100470.00;;;;4957536;28;90437;-67
2021/09/09 06:56:26;;;;;;;3.95;2.88;;;20.00;97.40;20.30;100474.00;;;;4958146;28;118739;-68
2021/09/09 06:58:52;;;;;;;2.92;2.63;;;20.00;96.30;20.50;100475.00;;;;4959336;28;88691;-67
2021/09/09 07:01:19;;;;;;;3.72;2.97;;;20.20;95.90;20.80;100467.00;;;;4956175;28;88002;-68
2021/09/09 07:03:45;;;;;;;2.97;2.40;;;20.60;95.40;21.00;100476.00;;;;4959489;28;109386;-67
2021/09/09 07:06:11;;;;;;;3.78;2.80;;;20.70;93.80;21.20;100471.00;;;;4964205;28;107467;-68
2021/09/09 07:08:37;;;;;;;2.05;1.83;;;20.90;92.30;21.40;100475.00;;;;4956915;28;118013;-68
2021/09/09 07:11:03;;;;;;;3.80;2.45;;;21.10;91.60;21.60;100469.00;;;;4954369;28;93749;-67
2021/09/09 07:13:29;;;;;;;2.17;2.00;;;21.30;90.00;21.70;100476.00;;;;4956373;28;108056;-67
2021/09/09 07:15:59;;;;;;;5.28;2.22;;;21.40;85.20;21.80;100475.00;;;;4954586;28;89489;-67
2021/09/09 07:18:27;;;;;;;3.70;2.72;;;21.60;85.10;22.00;100478.00;;;;4960704;28;97202;-68
2021/09/09 07:20:53;;;;;;;3.25;2.00;;;21.70;82.00;22.10;100473.00;;;;4959972;28;87831;-68
2021/09/09 07:23:18;;;;;;;3.47;2.33;;;21.80;80.90;22.20;100475.00;;;;4961035;28;89147;-67
2021/09/09 07:25:45;;;;;;;2.47;1.92;;;21.90;78.10;22.30;100466.00;;;;4957320;28;118629;-66
2021/09/09 07:28:10;;;;;;;3.92;1.70;;;22.00;77.80;22.50;100462.00;;;;4959992;28;94632;-66
2021/09/09 07:30:36;;;;;;;3.25;1.73;;;22.50;77.90;22.70;100464.00;;;;4956540;28;87846;-68
2021/09/09 07:33:04;;;;;;;4.13;2.20;;;22.40;73.00;22.70;100462.00;;;;4958397;28;87975;-68
2021/09/09 07:35:30;;;;;;;5.53;1.75;;;22.40;72.10;22.80;100460.00;;;;4955338;28;98242;-68
2021/09/09 07:37:56;;;;;;;3.88;2.25;;;22.60;71.20;22.90;100458.00;;;;4954454;28;102758;-69
2021/09/09 07:40:22;;;;;;;2.78;2.10;;;22.70;70.00;23.00;100461.00;;;;4955293;28;99634;-67
2021/09/09 07:42:48;;;;;;;5.32;2.60;;;22.60;69.60;23.20;100458.00;;;;4954396;28;89292;-67
2021/09/09 07:45:14;;;;;;;3.13;2.03;;;22.70;69.00;23.40;100459.00;;;;4953068;28;113168;-67
2021/09/09 07:47:40;;;;;;;1.73;1.63;;;23.10;66.40;23.60;100470.00;;;;4959301;28;117005;-68
2021/09/09 07:50:08;;;;;;;2.28;1.80;;;23.10;65.00;23.70;100475.00;;;;4959603;28;89206;-68
2021/09/09 07:52:35;;;;;;;1.90;1.25;;;23.40;64.70;23.90;100467.00;;;;4960183;28;86854;-67
2021/09/09 07:55:01;;;;;;;2.80;1.90;;;23.50;62.90;23.90;100468.00;;;;4954413;28;100651;-67
2021/09/09 07:57:26;;;;;;;1.92;1.40;;;23.80;62.20;24.00;100470.00;;;;4965554;28;88064;-67
2021/09/09 07:59:52;;;;;;;2.70;1.65;;;23.70;60.50;24.00;100467.00;;;;4956365;28;101557;-68
2021/09/09 08:02:18;;;;;;;3.22;1.55;;;24.00;58.70;24.00;100469.00;;;;4965639;28;108684;-68
2021/09/09 08:04:43;;;;;;;2.63;1.95;;;23.70;59.80;24.10;100473.00;;;;4953468;28;117631;-67
2021/09/09 08:07:09;;;;;;;2.95;1.95;;;23.80;58.60;24.10;100475.00;;;;4952992;28;116957;-67
2021/09/09 08:09:35;;;;;;;2.20;1.40;;;23.80;58.60;24.20;100469.00;;;;4953081;28;110437;-69
2021/09/09 08:12:02;;;;;;;4.30;1.48;;;23.90;57.70;24.20;100470.00;;;;4952005;28;88982;-67
2021/09/09 08:14:28;;;;;;;3.17;2.08;;;24.20;57.60;24.30;100476.00;;;;4962452;28;88585;-67
2021/09/09 08:16:54;;;;;;;4.70;2.05;;;24.10;58.20;24.40;100474.00;;;;4952562;28;88714;-67
2021/09/09 08:19:20;;;;;;;2.15;1.50;;;24.10;57.70;24.60;100474.00;;;;4953744;28;87716;-67
2021/09/09 08:21:45;;;;;;;3.22;1.90;;;24.30;58.00;24.90;100473.00;;;;4952902;28;108003;-69
2021/09/09 08:24:11;;;;;;;1.92;1.65;;;24.50;56.00;24.90;100476.00;;;;4964120;28;119861;-67
2021/09/09 08:26:37;;;;;;;1.95;1.35;;;24.60;54.60;24.90;100475.00;;;;4953829;28;109760;-69
2021/09/09 08:29:03;;;;;;;2.80;1.83;;;24.60;54.90;25.00;100479.00;;;;4951080;28;110373;-67
2021/09/09 08:31:28;;;;;;;3.90;1.50;;;24.70;54.60;25.00;100481.00;;;;4953561;28;108975;-67
2021/09/09 08:33:58;;;;;;;2.45;1.88;;;24.80;52.80;25.00;100480.00;;;;4954111;28;104595;-68
2021/09/09 08:36:24;;;;;;;3.08;1.70;;;24.80;52.00;24.90;100479.00;;;;4953511;28;88432;-68
2021/09/09 08:38:50;;;;;;;1.52;1.05;;;24.70;52.70;25.00;100481.00;;;;4959209;28;87956;-68
2021/09/09 08:41:16;;;;;;;3.97;1.70;;;24.70;51.00;24.90;100483.00;;;;4954038;28;86823;-67
2021/09/09 08:43:43;;;;;;;1.80;1.63;;;24.70;51.70;24.90;100482.00;;;;4958253;28;89136;-68
2021/09/09 08:46:11;;;;;;;3.17;1.67;;;24.70;51.90;25.00;100477.00;;;;4954078;28;87839;-68
2021/09/09 08:48:42;;;;;;;3.63;1.58;;;24.70;51.60;25.00;100486.00;;;;4958645;28;88946;-68
2021/09/09 08:51:08;;;;;;;1.98;1.75;;;24.70;51.90;25.20;100474.00;;;;4953525;28;87788;-68
2021/09/09 08:53:34;;;;;;;2.55;1.23;;;24.80;51.30;25.30;100478.00;;;;4955216;28;117720;-68
2021/09/09 08:56:00;;;;;;;2.85;1.83;;;24.90;52.00;25.50;100477.00;;;;4953232;28;117626;-67
2021/09/09 08:58:26;;;;;;;2.03;1.60;;;25.10;51.50;25.80;100479.00;;;;4958925;28;99681;-68
2021/09/09 09:01:18;;;;;;;1.60;1.50;;;25.30;49.90;25.90;100480.00;;;;4954247;28;87744;-68
2021/09/09 09:03:51;;;;;;;1.70;1.52;;;25.40;49.60;26.00;100479.00;;;;4955301;28;87999;-68
2021/09/09 09:06:26;;;;;;;4.75;2.22;;;25.50;49.50;26.20;100485.00;;;;4953869;28;88821;-67
2021/09/09 09:09:11;;;;;;;3.22;1.75;;;25.70;49.70;26.50;100479.00;;;;4961185;28;87691;-68
2021/09/09 09:11:44;;;;;;;2.72;1.85;;;26.00;49.40;26.60;100489.00;;;;4938674;28;88303;-67
2021/09/09 09:14:17;;;;;;;1.77;1.50;;;26.40;49.00;26.80;100497.00;;;;4959555;28;89164;-67
2021/09/09 09:16:50;;;;;;;1.83;1.27;;;26.30;47.90;26.80;100482.00;;;;4952338;28;89654;-67
2021/09/09 09:19:23;;;;;;;2.05;1.85;;;26.40;47.30;26.90;100484.00;;;;4961107;28;88952;-68
2021/09/09 09:22:06;;;;;;;2.20;1.38;;;26.50;47.10;27.00;100486.00;;;;4953587;28;87753;-67
2021/09/09 09:24:44;;;;;;;1.52;1.42;;;26.50;46.30;26.80;100480.00;;;;4964672;28;87924;-67
2021/09/09 09:27:19;;;;;;;2.47;1.17;;;26.70;45.90;26.70;100474.00;;;;4952147;28;87853;-67
2021/09/09 09:30:08;;;;;;;1.90;1.27;;;26.40;46.70;26.90;100474.00;;;;4954784;28;88250;-68
2021/09/09 09:32:38;;;;;;;1.58;1.20;;;26.40;46.60;27.00;100487.00;;;;4954030;28;87125;-68
2021/09/09 09:35:17;;;;;;;1.30;1.17;;;26.50;46.90;27.20;100487.00;;;;4953565;28;93287;-68
2021/09/09 09:38:06;;;;;;;1.83;1.60;;;26.70;46.60;27.40;100476.00;;;;4953910;28;88550;-68
2021/09/09 09:40:43;;;;;;;5.30;1.40;;;26.90;45.30;27.60;100476.00;;;;4953934;28;88702;-69
2021/09/09 09:43:11;;;;;;;1.88;1.45;;;27.00;45.30;27.70;100472.00;;;;4960761;28;88006;-68
2021/09/09 09:45:48;;;;;;;1.95;1.60;;;27.10;43.90;27.60;100486.00;;;;4938513;28;90555;-67
2021/09/09 09:48:28;;;;;;;1.90;1.70;;;27.20;44.10;27.60;100476.00;;;;4953687;28;88789;-68
2021/09/09 09:50:54;;;;;;;1.92;1.77;;;27.10;44.10;27.70;100481.00;;;;4952289;28;88064;-68
2021/09/09 09:53:21;;;;;;;1.63;1.33;;;27.10;44.80;27.90;100484.00;;;;4951809;28;87799;-67
2021/09/09 09:55:48;;;;;;;2.38;1.55;;;27.20;45.10;28.20;100479.00;;;;4952493;28;88586;-68
2021/09/09 09:58:15;;;;;;;2.42;1.67;;;27.50;44.10;28.30;100482.00;;;;4951306;28;87870;-67
2021/09/09 10:00:41;;;;;;;2.50;1.45;;;27.70;44.10;28.50;100485.00;;;;4960137;28;87751;-68
2021/09/09 10:03:07;;;;;;;1.55;1.33;;;27.80;43.60;28.60;100476.00;;;;4952775;28;87865;-69
2021/09/09 10:05:37;;;;;;;2.60;1.48;;;27.90;43.70;28.80;100479.00;;;;4955048;28;88979;-66
2021/09/09 10:08:06;;;;;;;2.17;1.58;;;28.10;43.40;28.90;100489.00;;;;4958758;28;88821;-69
2021/09/09 10:10:33;;;;;;;4.97;2.25;;;28.20;43.60;29.20;100476.00;;;;4952403;28;87847;-68
2021/09/09 10:12:59;;;;;;;2.80;1.70;;;28.40;43.20;29.40;100476.00;;;;4951599;28;101566;-68
2021/09/09 10:15:27;;;;;;;2.72;1.45;;;28.60;43.10;29.70;100473.00;;;;4953185;28;98072;-68
2021/09/09 10:17:54;;;;;;;2.00;1.73;;;28.90;42.30;29.70;100476.00;;;;4961233;28;109520;-68
2021/09/09 10:20:34;;;;;;;2.03;1.58;;;29.00;41.50;29.70;100470.00;;;;4963760;28;93145;-68
2021/09/09 10:23:15;;;;;;;2.65;1.48;;;29.10;41.20;29.60;100469.00;;;;4959506;28;86745;-68
2021/09/09 10:25:49;;;;;;;2.17;1.48;;;29.10;40.90;29.50;100469.00;;;;4952470;28;88228;-68
2021/09/09 10:28:33;;;;;;;2.13;1.45;;;29.00;40.70;29.60;100466.00;;;;4951470;28;88027;-68
2021/09/09 10:31:05;;;;;;;2.08;1.45;;;29.00;41.20;29.80;100467.00;;;;4952181;28;88986;-67
2021/09/09 10:33:31;;;;;;;7.80;1.90;;;29.20;41.40;30.00;100474.00;;;;4952431;28;88969;-67
2021/09/09 10:35:58;;;;;;;2.08;1.42;;;29.30;41.70;30.30;100461.00;;;;4952108;28;88318;-67
2021/09/09 10:38:31;;;;;;;2.10;1.40;;;29.60;41.30;30.60;100469.00;;;;4950339;28;111879;-67
2021/09/09 10:41:00;;;;;;;1.48;1.25;;;29.80;40.10;30.60;100466.00;;;;4955541;28;88174;-69